sensor_id;sensor_type;location;lat;lon;timestamp;P1;durP1;ratioP1;P2;durP2;ratioP2
70337;SDS011;57757;53.198;19.646;2023-09-19T00:00:45;16.60;;;10.00;;
70337;SDS011;57757;53.198;19.646;2023-09-19T00:03:35;24.70;;;11.10;;
70337;SDS011;57757;53.198;19.646;2023-09-19T00:06:07;16.50;;;10.30;;
70337;SDS011;57757;53.198;19.646;2023-09-19T00:08:36;19.50;;;11.30;;
70337;SDS011;57757;53.198;19.646;2023-09-19T00:11:03;18.30;;;10.60;;
70337;SDS011;57757;53.198;19.646;2023-09-19T00:13:31;17.80;;;10.70;;
70337;SDS011;57757;53.198;19.646;2023-09-19T00:16:01;16.90;;;10.50;;
70337;SDS011;57757;53.198;19.646;2023-09-19T00:18:35;18.30;;;10.70;;
70337;SDS011;57757;53.198;19.646;2023-09-19T00:21:03;17.80;;;11.40;;
70337;SDS011;57757;53.198;19.646;2023-09-19T00:23:35;18.50;;;11.00;;
70337;SDS011;57757;53.198;19.646;2023-09-19T00:26:02;17.70;;;11.10;;
70337;SDS011;57757;53.198;19.646;2023-09-19T00:28:31;17.30;;;10.50;;
70337;SDS011;57757;53.198;19.646;2023-09-19T00:30:59;18.10;;;10.80;;
70337;SDS011;57757;53.198;19.646;2023-09-19T00:33:29;17.10;;;10.90;;
70337;SDS011;57757;53.198;19.646;2023-09-19T00:35:57;17.90;;;10.70;;
70337;SDS011;57757;53.198;19.646;2023-09-19T00:38:25;17.70;;;10.60;;
70337;SDS011;57757;53.198;19.646;2023-09-19T00:40:54;18.70;;;10.40;;
70337;SDS011;57757;53.198;19.646;2023-09-19T00:43:27;19.00;;;11.40;;
70337;SDS011;57757;53.198;19.646;2023-09-19T00:45:55;18.80;;;11.40;;
70337;SDS011;57757;53.198;19.646;2023-09-19T00:48:24;19.10;;;10.90;;
70337;SDS011;57757;53.198;19.646;2023-09-19T00:50:55;17.10;;;10.60;;
70337;SDS011;57757;53.198;19.646;2023-09-19T00:53:27;18.60;;;11.00;;
70337;SDS011;57757;53.198;19.646;2023-09-19T00:55:55;17.50;;;11.20;;
70337;SDS011;57757;53.198;19.646;2023-09-19T00:58:23;16.90;;;10.40;;
70337;SDS011;57757;53.198;19.646;2023-09-19T01:00:51;17.80;;;11.10;;
70337;SDS011;57757;53.198;19.646;2023-09-19T01:03:20;19.50;;;11.00;;
70337;SDS011;57757;53.198;19.646;2023-09-19T01:05:50;17.60;;;11.00;;
70337;SDS011;57757;53.198;19.646;2023-09-19T01:08:17;20.00;;;11.80;;
70337;SDS011;57757;53.198;19.646;2023-09-19T01:10:48;19.10;;;10.80;;
70337;SDS011;57757;53.198;19.646;2023-09-19T01:18:55;18.60;;;11.90;;
70337;SDS011;57757;53.198;19.646;2023-09-19T01:24:29;18.50;;;11.50;;
70337;SDS011;57757;53.198;19.646;2023-09-19T01:29:48;17.50;;;11.10;;
70337;SDS011;57757;53.198;19.646;2023-09-19T01:32:19;22.40;;;12.00;;
70337;SDS011;57757;53.198;19.646;2023-09-19T01:34:54;18.30;;;12.00;;
70337;SDS011;57757;53.198;19.646;2023-09-19T01:37:31;19.00;;;11.50;;
70337;SDS011;57757;53.198;19.646;2023-09-19T01:40:03;18.80;;;11.40;;
70337;SDS011;57757;53.198;19.646;2023-09-19T01:42:54;26.70;;;11.50;;
70337;SDS011;57757;53.198;19.646;2023-09-19T01:48:33;18.00;;;11.60;;
70337;SDS011;57757;53.198;19.646;2023-09-19T01:51:03;21.00;;;11.80;;
70337;SDS011;57757;53.198;19.646;2023-09-19T01:56:39;19.70;;;11.10;;
70337;SDS011;57757;53.198;19.646;2023-09-19T01:59:35;17.40;;;11.90;;
70337;SDS011;57757;53.198;19.646;2023-09-19T02:02:08;18.60;;;12.20;;
70337;SDS011;57757;53.198;19.646;2023-09-19T02:04:37;18.50;;;11.80;;
70337;SDS011;57757;53.198;19.646;2023-09-19T02:07:05;22.40;;;11.40;;
70337;SDS011;57757;53.198;19.646;2023-09-19T02:13:18;20.30;;;11.80;;
70337;SDS011;57757;53.198;19.646;2023-09-19T02:15:47;18.90;;;11.80;;
70337;SDS011;57757;53.198;19.646;2023-09-19T02:18:15;18.90;;;12.10;;
70337;SDS011;57757;53.198;19.646;2023-09-19T02:20:42;20.10;;;11.80;;
70337;SDS011;57757;53.198;19.646;2023-09-19T02:23:10;19.20;;;11.90;;
70337;SDS011;57757;53.198;19.646;2023-09-19T02:25:38;21.80;;;13.40;;
70337;SDS011;57757;53.198;19.646;2023-09-19T02:28:07;20.90;;;12.10;;
70337;SDS011;57757;53.198;19.646;2023-09-19T02:30:36;17.80;;;11.70;;
70337;SDS011;57757;53.198;19.646;2023-09-19T02:33:04;18.00;;;11.40;;
70337;SDS011;57757;53.198;19.646;2023-09-19T02:35:33;20.60;;;12.10;;
70337;SDS011;57757;53.198;19.646;2023-09-19T02:38:03;19.50;;;12.50;;
70337;SDS011;57757;53.198;19.646;2023-09-19T02:40:33;18.80;;;11.90;;
70337;SDS011;57757;53.198;19.646;2023-09-19T02:43:04;22.50;;;12.80;;
70337;SDS011;57757;53.198;19.646;2023-09-19T02:45:32;18.10;;;11.20;;
70337;SDS011;57757;53.198;19.646;2023-09-19T02:47:59;20.00;;;12.20;;
70337;SDS011;57757;53.198;19.646;2023-09-19T02:50:27;18.70;;;11.60;;
70337;SDS011;57757;53.198;19.646;2023-09-19T02:52:55;17.30;;;11.60;;
70337;SDS011;57757;53.198;19.646;2023-09-19T02:55:22;20.00;;;13.00;;
70337;SDS011;57757;53.198;19.646;2023-09-19T02:57:51;19.30;;;12.20;;
70337;SDS011;57757;53.198;19.646;2023-09-19T03:00:23;19.90;;;12.40;;
70337;SDS011;57757;53.198;19.646;2023-09-19T03:02:53;20.20;;;12.40;;
70337;SDS011;57757;53.198;19.646;2023-09-19T03:05:22;22.50;;;12.10;;
70337;SDS011;57757;53.198;19.646;2023-09-19T03:07:50;19.60;;;12.50;;
70337;SDS011;57757;53.198;19.646;2023-09-19T03:10:18;23.90;;;13.00;;
70337;SDS011;57757;53.198;19.646;2023-09-19T03:12:48;20.10;;;12.00;;
70337;SDS011;57757;53.198;19.646;2023-09-19T03:15:15;19.90;;;12.30;;
70337;SDS011;57757;53.198;19.646;2023-09-19T03:17:45;19.70;;;12.70;;
70337;SDS011;57757;53.198;19.646;2023-09-19T03:20:15;20.50;;;12.90;;
70337;SDS011;57757;53.198;19.646;2023-09-19T03:22:46;18.10;;;11.40;;
70337;SDS011;57757;53.198;19.646;2023-09-19T03:25:13;20.80;;;13.00;;
70337;SDS011;57757;53.198;19.646;2023-09-19T03:27:41;20.80;;;13.20;;
70337;SDS011;57757;53.198;19.646;2023-09-19T03:30:09;20.70;;;12.10;;
70337;SDS011;57757;53.198;19.646;2023-09-19T03:32:46;20.90;;;12.40;;
70337;SDS011;57757;53.198;19.646;2023-09-19T03:35:17;18.60;;;12.30;;
70337;SDS011;57757;53.198;19.646;2023-09-19T03:37:44;19.00;;;12.20;;
70337;SDS011;57757;53.198;19.646;2023-09-19T03:40:12;19.20;;;12.40;;
70337;SDS011;57757;53.198;19.646;2023-09-19T03:42:40;23.00;;;13.30;;
70337;SDS011;57757;53.198;19.646;2023-09-19T03:45:09;22.10;;;14.30;;
70337;SDS011;57757;53.198;19.646;2023-09-19T03:47:40;21.20;;;13.30;;
70337;SDS011;57757;53.198;19.646;2023-09-19T03:50:08;24.90;;;15.70;;
70337;SDS011;57757;53.198;19.646;2023-09-19T03:52:38;23.50;;;15.20;;
70337;SDS011;57757;53.198;19.646;2023-09-19T03:55:06;24.00;;;14.10;;
70337;SDS011;57757;53.198;19.646;2023-09-19T03:57:34;21.80;;;13.90;;
70337;SDS011;57757;53.198;19.646;2023-09-19T04:00:03;21.70;;;13.70;;
70337;SDS011;57757;53.198;19.646;2023-09-19T04:02:38;23.60;;;14.30;;
70337;SDS011;57757;53.198;19.646;2023-09-19T04:05:07;21.40;;;13.40;;
70337;SDS011;57757;53.198;19.646;2023-09-19T04:07:34;19.60;;;13.30;;
70337;SDS011;57757;53.198;19.646;2023-09-19T04:10:02;22.90;;;14.80;;
70337;SDS011;57757;53.198;19.646;2023-09-19T04:12:30;23.60;;;14.80;;
70337;SDS011;57757;53.198;19.646;2023-09-19T04:14:58;24.00;;;14.20;;
70337;SDS011;57757;53.198;19.646;2023-09-19T04:17:25;23.30;;;14.90;;
70337;SDS011;57757;53.198;19.646;2023-09-19T04:19:53;22.10;;;14.80;;
70337;SDS011;57757;53.198;19.646;2023-09-19T04:22:21;23.90;;;14.60;;
70337;SDS011;57757;53.198;19.646;2023-09-19T04:24:48;27.10;;;15.30;;
70337;SDS011;57757;53.198;19.646;2023-09-19T04:27:16;22.20;;;13.70;;
70337;SDS011;57757;53.198;19.646;2023-09-19T04:29:44;26.00;;;16.00;;
70337;SDS011;57757;53.198;19.646;2023-09-19T04:32:11;22.90;;;14.50;;
70337;SDS011;57757;53.198;19.646;2023-09-19T04:34:40;31.20;;;15.90;;
70337;SDS011;57757;53.198;19.646;2023-09-19T04:37:08;21.60;;;13.10;;
70337;SDS011;57757;53.198;19.646;2023-09-19T04:39:35;22.60;;;14.10;;
70337;SDS011;57757;53.198;19.646;2023-09-19T04:42:03;28.60;;;16.00;;
70337;SDS011;57757;53.198;19.646;2023-09-19T04:44:31;25.20;;;15.80;;
70337;SDS011;57757;53.198;19.646;2023-09-19T04:46:58;25.20;;;15.40;;
70337;SDS011;57757;53.198;19.646;2023-09-19T04:49:27;24.40;;;14.60;;
70337;SDS011;57757;53.198;19.646;2023-09-19T04:51:54;26.40;;;15.00;;
70337;SDS011;57757;53.198;19.646;2023-09-19T04:54:22;24.10;;;14.40;;
70337;SDS011;57757;53.198;19.646;2023-09-19T04:56:50;29.90;;;16.10;;
70337;SDS011;57757;53.198;19.646;2023-09-19T04:59:17;27.40;;;16.10;;
70337;SDS011;57757;53.198;19.646;2023-09-19T05:01:45;24.20;;;14.40;;
70337;SDS011;57757;53.198;19.646;2023-09-19T05:04:14;25.90;;;15.40;;
70337;SDS011;57757;53.198;19.646;2023-09-19T05:06:41;21.60;;;14.60;;
70337;SDS011;57757;53.198;19.646;2023-09-19T05:09:13;24.90;;;14.20;;
70337;SDS011;57757;53.198;19.646;2023-09-19T05:11:40;23.40;;;14.70;;
70337;SDS011;57757;53.198;19.646;2023-09-19T05:14:08;24.50;;;15.00;;
70337;SDS011;57757;53.198;19.646;2023-09-19T05:16:35;22.60;;;14.70;;
70337;SDS011;57757;53.198;19.646;2023-09-19T05:19:03;22.80;;;15.30;;
70337;SDS011;57757;53.198;19.646;2023-09-19T05:21:31;22.90;;;15.80;;
70337;SDS011;57757;53.198;19.646;2023-09-19T05:23:59;23.90;;;15.80;;
70337;SDS011;57757;53.198;19.646;2023-09-19T05:26:26;22.40;;;15.00;;
70337;SDS011;57757;53.198;19.646;2023-09-19T05:28:54;22.50;;;14.30;;
70337;SDS011;57757;53.198;19.646;2023-09-19T05:31:21;22.20;;;14.80;;
70337;SDS011;57757;53.198;19.646;2023-09-19T05:33:51;23.90;;;13.30;;
70337;SDS011;57757;53.198;19.646;2023-09-19T05:36:20;21.60;;;13.60;;
70337;SDS011;57757;53.198;19.646;2023-09-19T05:38:47;23.50;;;14.40;;
70337;SDS011;57757;53.198;19.646;2023-09-19T05:41:17;22.00;;;14.50;;
70337;SDS011;57757;53.198;19.646;2023-09-19T05:43:45;25.30;;;15.30;;
70337;SDS011;57757;53.198;19.646;2023-09-19T05:46:12;31.10;;;16.80;;
70337;SDS011;57757;53.198;19.646;2023-09-19T05:48:43;25.20;;;15.50;;
70337;SDS011;57757;53.198;19.646;2023-09-19T05:51:11;23.80;;;14.90;;
70337;SDS011;57757;53.198;19.646;2023-09-19T05:53:38;24.40;;;15.40;;
70337;SDS011;57757;53.198;19.646;2023-09-19T05:56:06;24.20;;;13.90;;
70337;SDS011;57757;53.198;19.646;2023-09-19T05:58:34;23.20;;;14.90;;
70337;SDS011;57757;53.198;19.646;2023-09-19T06:01:01;26.20;;;15.50;;
70337;SDS011;57757;53.198;19.646;2023-09-19T06:03:29;22.60;;;14.40;;
70337;SDS011;57757;53.198;19.646;2023-09-19T06:05:58;25.40;;;15.00;;
70337;SDS011;57757;53.198;19.646;2023-09-19T06:08:27;22.40;;;14.30;;
70337;SDS011;57757;53.198;19.646;2023-09-19T06:10:55;22.20;;;13.90;;
70337;SDS011;57757;53.198;19.646;2023-09-19T06:13:22;23.00;;;14.40;;
70337;SDS011;57757;53.198;19.646;2023-09-19T06:15:52;25.90;;;14.50;;
70337;SDS011;57757;53.198;19.646;2023-09-19T06:18:22;22.30;;;13.40;;
70337;SDS011;57757;53.198;19.646;2023-09-19T06:20:53;25.70;;;14.40;;
70337;SDS011;57757;53.198;19.646;2023-09-19T06:23:21;24.20;;;15.30;;
70337;SDS011;57757;53.198;19.646;2023-09-19T06:25:50;24.10;;;15.30;;
70337;SDS011;57757;53.198;19.646;2023-09-19T06:28:22;27.70;;;16.40;;
70337;SDS011;57757;53.198;19.646;2023-09-19T06:30:51;27.90;;;16.70;;
70337;SDS011;57757;53.198;19.646;2023-09-19T06:33:19;29.80;;;18.20;;
70337;SDS011;57757;53.198;19.646;2023-09-19T06:35:49;29.30;;;17.30;;
70337;SDS011;57757;53.198;19.646;2023-09-19T06:38:22;26.30;;;14.40;;
70337;SDS011;57757;53.198;19.646;2023-09-19T06:40:50;28.00;;;16.60;;
70337;SDS011;57757;53.198;19.646;2023-09-19T06:43:18;26.10;;;15.00;;
70337;SDS011;57757;53.198;19.646;2023-09-19T06:45:46;24.50;;;14.50;;
70337;SDS011;57757;53.198;19.646;2023-09-19T06:48:14;25.90;;;15.00;;
70337;SDS011;57757;53.198;19.646;2023-09-19T06:50:42;23.10;;;14.00;;
70337;SDS011;57757;53.198;19.646;2023-09-19T06:53:11;20.10;;;13.10;;
70337;SDS011;57757;53.198;19.646;2023-09-19T06:55:39;20.90;;;13.70;;
70337;SDS011;57757;53.198;19.646;2023-09-19T06:58:07;26.10;;;13.50;;
70337;SDS011;57757;53.198;19.646;2023-09-19T07:00:37;21.10;;;12.50;;
70337;SDS011;57757;53.198;19.646;2023-09-19T07:03:06;21.70;;;12.50;;
70337;SDS011;57757;53.198;19.646;2023-09-19T07:05:42;20.80;;;12.10;;
70337;SDS011;57757;53.198;19.646;2023-09-19T07:08:10;21.90;;;12.10;;
70337;SDS011;57757;53.198;19.646;2023-09-19T07:10:41;23.40;;;11.50;;
70337;SDS011;57757;53.198;19.646;2023-09-19T07:13:15;20.40;;;10.30;;
70337;SDS011;57757;53.198;19.646;2023-09-19T07:15:46;20.30;;;11.40;;
70337;SDS011;57757;53.198;19.646;2023-09-19T07:18:14;18.50;;;10.90;;
70337;SDS011;57757;53.198;19.646;2023-09-19T07:20:45;19.60;;;12.00;;
70337;SDS011;57757;53.198;19.646;2023-09-19T07:23:20;24.60;;;12.20;;
70337;SDS011;57757;53.198;19.646;2023-09-19T07:25:50;20.70;;;11.70;;
70337;SDS011;57757;53.198;19.646;2023-09-19T07:28:18;21.90;;;12.60;;
70337;SDS011;57757;53.198;19.646;2023-09-19T07:30:46;25.90;;;14.80;;
70337;SDS011;57757;53.198;19.646;2023-09-19T07:33:13;27.10;;;15.10;;
70337;SDS011;57757;53.198;19.646;2023-09-19T07:35:45;23.30;;;13.70;;
70337;SDS011;57757;53.198;19.646;2023-09-19T07:38:13;22.40;;;12.70;;
70337;SDS011;57757;53.198;19.646;2023-09-19T07:40:41;19.60;;;11.80;;
70337;SDS011;57757;53.198;19.646;2023-09-19T07:43:08;19.80;;;12.20;;
70337;SDS011;57757;53.198;19.646;2023-09-19T07:45:36;21.20;;;13.40;;
70337;SDS011;57757;53.198;19.646;2023-09-19T07:48:04;21.60;;;12.30;;
70337;SDS011;57757;53.198;19.646;2023-09-19T07:50:34;18.30;;;11.50;;
70337;SDS011;57757;53.198;19.646;2023-09-19T07:53:05;18.90;;;11.50;;
70337;SDS011;57757;53.198;19.646;2023-09-19T07:55:32;16.80;;;9.30;;
70337;SDS011;57757;53.198;19.646;2023-09-19T07:58:02;16.20;;;9.30;;
70337;SDS011;57757;53.198;19.646;2023-09-19T08:00:31;16.20;;;8.40;;
70337;SDS011;57757;53.198;19.646;2023-09-19T08:03:02;12.70;;;8.30;;
70337;SDS011;57757;53.198;19.646;2023-09-19T08:05:43;14.60;;;8.80;;
70337;SDS011;57757;53.198;19.646;2023-09-19T08:08:12;15.90;;;8.00;;
70337;SDS011;57757;53.198;19.646;2023-09-19T08:10:41;13.70;;;7.90;;
70337;SDS011;57757;53.198;19.646;2023-09-19T08:13:12;15.00;;;8.00;;
70337;SDS011;57757;53.198;19.646;2023-09-19T08:15:43;13.50;;;7.50;;
70337;SDS011;57757;53.198;19.646;2023-09-19T08:18:12;13.70;;;7.20;;
70337;SDS011;57757;53.198;19.646;2023-09-19T08:20:39;12.90;;;6.90;;
70337;SDS011;57757;53.198;19.646;2023-09-19T08:23:09;13.10;;;7.50;;
70337;SDS011;57757;53.198;19.646;2023-09-19T08:25:37;12.50;;;7.40;;
70337;SDS011;57757;53.198;19.646;2023-09-19T08:28:06;11.90;;;7.30;;
70337;SDS011;57757;53.198;19.646;2023-09-19T08:30:36;13.40;;;6.90;;
70337;SDS011;57757;53.198;19.646;2023-09-19T08:33:04;11.30;;;7.00;;
70337;SDS011;57757;53.198;19.646;2023-09-19T08:35:32;13.10;;;7.60;;
70337;SDS011;57757;53.198;19.646;2023-09-19T08:37:59;11.10;;;7.00;;
70337;SDS011;57757;53.198;19.646;2023-09-19T08:40:32;12.90;;;7.50;;
70337;SDS011;57757;53.198;19.646;2023-09-19T08:43:03;11.30;;;7.10;;
70337;SDS011;57757;53.198;19.646;2023-09-19T08:45:31;12.20;;;7.30;;
70337;SDS011;57757;53.198;19.646;2023-09-19T08:50:51;15.70;;;8.60;;
70337;SDS011;57757;53.198;19.646;2023-09-19T08:53:26;13.50;;;8.40;;
70337;SDS011;57757;53.198;19.646;2023-09-19T08:56:01;10.50;;;7.20;;
70337;SDS011;57757;53.198;19.646;2023-09-19T08:58:31;13.60;;;7.60;;
70337;SDS011;57757;53.198;19.646;2023-09-19T09:01:08;13.50;;;7.60;;
70337;SDS011;57757;53.198;19.646;2023-09-19T09:03:39;12.90;;;7.40;;
70337;SDS011;57757;53.198;19.646;2023-09-19T09:06:16;13.10;;;7.50;;
70337;SDS011;57757;53.198;19.646;2023-09-19T09:08:46;13.50;;;7.40;;
70337;SDS011;57757;53.198;19.646;2023-09-19T09:11:17;12.20;;;6.80;;
70337;SDS011;57757;53.198;19.646;2023-09-19T09:13:51;11.80;;;6.50;;
70337;SDS011;57757;53.198;19.646;2023-09-19T09:16:18;12.40;;;7.00;;
70337;SDS011;57757;53.198;19.646;2023-09-19T09:18:47;11.90;;;6.80;;
70337;SDS011;57757;53.198;19.646;2023-09-19T09:21:22;12.60;;;7.70;;
70337;SDS011;57757;53.198;19.646;2023-09-19T09:23:52;12.50;;;7.20;;
70337;SDS011;57757;53.198;19.646;2023-09-19T09:29:08;13.00;;;7.40;;
70337;SDS011;57757;53.198;19.646;2023-09-19T09:31:36;11.80;;;7.10;;
70337;SDS011;57757;53.198;19.646;2023-09-19T09:34:05;12.10;;;6.40;;
70337;SDS011;57757;53.198;19.646;2023-09-19T09:36:35;12.70;;;6.80;;
70337;SDS011;57757;53.198;19.646;2023-09-19T09:39:04;12.80;;;6.50;;
70337;SDS011;57757;53.198;19.646;2023-09-19T09:41:47;13.50;;;6.90;;
70337;SDS011;57757;53.198;19.646;2023-09-19T09:44:17;11.30;;;6.80;;
70337;SDS011;57757;53.198;19.646;2023-09-19T09:46:47;10.80;;;6.10;;
70337;SDS011;57757;53.198;19.646;2023-09-19T09:49:23;12.00;;;5.80;;
70337;SDS011;57757;53.198;19.646;2023-09-19T09:52:01;11.10;;;6.60;;
70337;SDS011;57757;53.198;19.646;2023-09-19T09:57:32;10.00;;;5.40;;
70337;SDS011;57757;53.198;19.646;2023-09-19T10:00:01;9.20;;;5.60;;
70337;SDS011;57757;53.198;19.646;2023-09-19T10:02:46;11.50;;;6.10;;
70337;SDS011;57757;53.198;19.646;2023-09-19T10:05:15;10.70;;;6.00;;
70337;SDS011;57757;53.198;19.646;2023-09-19T10:07:44;12.00;;;6.50;;
70337;SDS011;57757;53.198;19.646;2023-09-19T10:13:25;9.60;;;5.90;;
70337;SDS011;57757;53.198;19.646;2023-09-19T10:16:07;11.70;;;5.70;;
70337;SDS011;57757;53.198;19.646;2023-09-19T10:18:38;9.60;;;5.70;;
70337;SDS011;57757;53.198;19.646;2023-09-19T10:21:09;10.10;;;5.80;;
70337;SDS011;57757;53.198;19.646;2023-09-19T10:23:38;10.80;;;5.90;;
70337;SDS011;57757;53.198;19.646;2023-09-19T10:26:10;8.60;;;5.40;;
70337;SDS011;57757;53.198;19.646;2023-09-19T10:28:38;11.70;;;5.70;;
70337;SDS011;57757;53.198;19.646;2023-09-19T10:31:07;10.50;;;6.20;;
70337;SDS011;57757;53.198;19.646;2023-09-19T10:33:36;11.20;;;6.50;;
70337;SDS011;57757;53.198;19.646;2023-09-19T10:36:05;12.20;;;6.50;;
70337;SDS011;57757;53.198;19.646;2023-09-19T10:38:33;10.60;;;6.40;;
70337;SDS011;57757;53.198;19.646;2023-09-19T10:41:08;12.40;;;6.90;;
70337;SDS011;57757;53.198;19.646;2023-09-19T10:43:37;13.20;;;7.00;;
70337;SDS011;57757;53.198;19.646;2023-09-19T10:46:07;10.40;;;6.50;;
70337;SDS011;57757;53.198;19.646;2023-09-19T10:48:38;15.10;;;7.90;;
70337;SDS011;57757;53.198;19.646;2023-09-19T10:51:11;10.70;;;7.30;;
70337;SDS011;57757;53.198;19.646;2023-09-19T10:56:23;13.40;;;8.00;;
70337;SDS011;57757;53.198;19.646;2023-09-19T11:01:46;16.60;;;8.80;;
70337;SDS011;57757;53.198;19.646;2023-09-19T11:04:26;13.50;;;9.00;;
70337;SDS011;57757;53.198;19.646;2023-09-19T11:06:59;12.50;;;8.00;;
70337;SDS011;57757;53.198;19.646;2023-09-19T11:15:08;16.40;;;9.50;;
70337;SDS011;57757;53.198;19.646;2023-09-19T11:17:38;14.50;;;8.90;;
70337;SDS011;57757;53.198;19.646;2023-09-19T11:30:37;15.00;;;8.90;;
70337;SDS011;57757;53.198;19.646;2023-09-19T11:36:00;15.30;;;9.10;;
70337;SDS011;57757;53.198;19.646;2023-09-19T11:43:48;12.00;;;6.70;;
70337;SDS011;57757;53.198;19.646;2023-09-19T11:46:22;8.90;;;5.30;;
70337;SDS011;57757;53.198;19.646;2023-09-19T11:48:51;10.00;;;5.90;;
70337;SDS011;57757;53.198;19.646;2023-09-19T11:51:20;9.80;;;6.30;;
70337;SDS011;57757;53.198;19.646;2023-09-19T11:53:56;10.20;;;6.10;;
70337;SDS011;57757;53.198;19.646;2023-09-19T11:56:28;10.50;;;7.20;;
70337;SDS011;57757;53.198;19.646;2023-09-19T11:58:55;13.00;;;6.70;;
70337;SDS011;57757;53.198;19.646;2023-09-19T12:03:53;10.70;;;6.80;;
70337;SDS011;57757;53.198;19.646;2023-09-19T12:06:25;10.20;;;6.10;;
70337;SDS011;57757;53.198;19.646;2023-09-19T12:08:54;10.30;;;6.20;;
70337;SDS011;57757;53.198;19.646;2023-09-19T12:11:22;9.60;;;5.90;;
70337;SDS011;57757;53.198;19.646;2023-09-19T12:13:50;10.20;;;6.00;;
70337;SDS011;57757;53.198;19.646;2023-09-19T12:16:20;9.10;;;5.40;;
70337;SDS011;57757;53.198;19.646;2023-09-19T12:18:49;9.60;;;5.10;;
70337;SDS011;57757;53.198;19.646;2023-09-19T12:21:24;10.00;;;4.70;;
70337;SDS011;57757;53.198;19.646;2023-09-19T12:24:07;8.50;;;3.70;;
70337;SDS011;57757;53.198;19.646;2023-09-19T12:26:46;9.10;;;3.90;;
70337;SDS011;57757;53.198;19.646;2023-09-19T12:29:19;7.00;;;3.30;;
70337;SDS011;57757;53.198;19.646;2023-09-19T12:34:26;6.90;;;3.20;;
70337;SDS011;57757;53.198;19.646;2023-09-19T12:39:50;7.20;;;3.50;;
70337;SDS011;57757;53.198;19.646;2023-09-19T12:42:21;7.80;;;3.40;;
70337;SDS011;57757;53.198;19.646;2023-09-19T12:44:51;6.90;;;3.40;;
70337;SDS011;57757;53.198;19.646;2023-09-19T12:47:24;9.90;;;3.30;;
70337;SDS011;57757;53.198;19.646;2023-09-19T12:52:48;7.40;;;3.00;;
70337;SDS011;57757;53.198;19.646;2023-09-19T12:55:21;6.20;;;2.30;;
70337;SDS011;57757;53.198;19.646;2023-09-19T12:58:02;8.00;;;3.00;;
70337;SDS011;57757;53.198;19.646;2023-09-19T13:00:36;9.70;;;2.90;;
70337;SDS011;57757;53.198;19.646;2023-09-19T13:06:00;7.70;;;2.70;;
70337;SDS011;57757;53.198;19.646;2023-09-19T13:08:32;6.40;;;2.50;;
70337;SDS011;57757;53.198;19.646;2023-09-19T13:11:01;7.40;;;2.70;;
70337;SDS011;57757;53.198;19.646;2023-09-19T13:13:50;9.30;;;3.60;;
70337;SDS011;57757;53.198;19.646;2023-09-19T13:25:14;7.40;;;3.00;;
70337;SDS011;57757;53.198;19.646;2023-09-19T13:27:47;10.70;;;5.60;;
70337;SDS011;57757;53.198;19.646;2023-09-19T13:30:20;13.10;;;7.30;;
70337;SDS011;57757;53.198;19.646;2023-09-19T13:33:06;8.80;;;2.90;;
70337;SDS011;57757;53.198;19.646;2023-09-19T13:35:38;6.50;;;2.50;;
70337;SDS011;57757;53.198;19.646;2023-09-19T13:38:09;8.40;;;2.60;;
70337;SDS011;57757;53.198;19.646;2023-09-19T13:40:39;5.90;;;2.10;;
70337;SDS011;57757;53.198;19.646;2023-09-19T13:43:09;6.20;;;2.30;;
70337;SDS011;57757;53.198;19.646;2023-09-19T13:45:38;6.70;;;2.60;;
70337;SDS011;57757;53.198;19.646;2023-09-19T13:48:09;6.00;;;2.40;;
70337;SDS011;57757;53.198;19.646;2023-09-19T13:50:38;7.10;;;2.40;;
70337;SDS011;57757;53.198;19.646;2023-09-19T13:53:09;8.20;;;2.50;;
70337;SDS011;57757;53.198;19.646;2023-09-19T13:55:36;6.50;;;2.20;;
70337;SDS011;57757;53.198;19.646;2023-09-19T13:58:05;6.70;;;2.50;;
70337;SDS011;57757;53.198;19.646;2023-09-19T14:00:34;6.40;;;2.20;;
70337;SDS011;57757;53.198;19.646;2023-09-19T14:03:02;9.50;;;3.40;;
70337;SDS011;57757;53.198;19.646;2023-09-19T14:05:32;6.10;;;2.50;;
70337;SDS011;57757;53.198;19.646;2023-09-19T14:08:00;6.40;;;2.20;;
70337;SDS011;57757;53.198;19.646;2023-09-19T14:10:28;7.20;;;2.10;;
70337;SDS011;57757;53.198;19.646;2023-09-19T14:12:57;6.40;;;2.70;;
70337;SDS011;57757;53.198;19.646;2023-09-19T14:15:27;11.40;;;4.80;;
70337;SDS011;57757;53.198;19.646;2023-09-19T14:17:57;11.70;;;4.60;;
70337;SDS011;57757;53.198;19.646;2023-09-19T14:20:27;10.50;;;3.90;;
70337;SDS011;57757;53.198;19.646;2023-09-19T14:22:55;8.70;;;3.30;;
70337;SDS011;57757;53.198;19.646;2023-09-19T14:25:22;10.20;;;4.90;;
70337;SDS011;57757;53.198;19.646;2023-09-19T14:27:51;10.00;;;4.70;;
70337;SDS011;57757;53.198;19.646;2023-09-19T14:30:19;9.80;;;4.30;;
70337;SDS011;57757;53.198;19.646;2023-09-19T14:32:46;10.00;;;4.40;;
70337;SDS011;57757;53.198;19.646;2023-09-19T14:35:14;8.30;;;2.90;;
70337;SDS011;57757;53.198;19.646;2023-09-19T14:37:42;11.60;;;5.90;;
70337;SDS011;57757;53.198;19.646;2023-09-19T14:40:10;10.50;;;4.40;;
70337;SDS011;57757;53.198;19.646;2023-09-19T14:42:40;7.90;;;3.20;;
70337;SDS011;57757;53.198;19.646;2023-09-19T14:45:08;6.30;;;2.50;;
70337;SDS011;57757;53.198;19.646;2023-09-19T14:47:36;12.20;;;5.10;;
70337;SDS011;57757;53.198;19.646;2023-09-19T14:50:05;7.70;;;3.50;;
70337;SDS011;57757;53.198;19.646;2023-09-19T14:52:34;5.90;;;2.00;;
70337;SDS011;57757;53.198;19.646;2023-09-19T14:55:04;8.30;;;2.60;;
70337;SDS011;57757;53.198;19.646;2023-09-19T14:57:33;5.90;;;2.50;;
70337;SDS011;57757;53.198;19.646;2023-09-19T15:00:00;8.30;;;3.70;;
70337;SDS011;57757;53.198;19.646;2023-09-19T15:02:28;10.10;;;4.30;;
70337;SDS011;57757;53.198;19.646;2023-09-19T15:04:57;9.80;;;3.70;;
70337;SDS011;57757;53.198;19.646;2023-09-19T15:07:25;7.60;;;2.90;;
70337;SDS011;57757;53.198;19.646;2023-09-19T15:09:55;8.30;;;4.20;;
70337;SDS011;57757;53.198;19.646;2023-09-19T15:12:23;8.60;;;4.00;;
70337;SDS011;57757;53.198;19.646;2023-09-19T15:14:51;8.50;;;3.80;;
70337;SDS011;57757;53.198;19.646;2023-09-19T15:17:19;11.00;;;6.70;;
70337;SDS011;57757;53.198;19.646;2023-09-19T15:19:49;17.30;;;12.80;;
70337;SDS011;57757;53.198;19.646;2023-09-19T15:22:17;9.40;;;4.20;;
70337;SDS011;57757;53.198;19.646;2023-09-19T15:24:44;9.10;;;3.40;;
70337;SDS011;57757;53.198;19.646;2023-09-19T15:27:12;8.50;;;3.80;;
70337;SDS011;57757;53.198;19.646;2023-09-19T15:29:39;11.90;;;6.50;;
70337;SDS011;57757;53.198;19.646;2023-09-19T15:32:07;9.40;;;3.60;;
70337;SDS011;57757;53.198;19.646;2023-09-19T15:34:34;10.70;;;6.20;;
70337;SDS011;57757;53.198;19.646;2023-09-19T15:37:02;11.30;;;4.80;;
70337;SDS011;57757;53.198;19.646;2023-09-19T15:39:30;8.10;;;3.30;;
70337;SDS011;57757;53.198;19.646;2023-09-19T15:42:00;11.70;;;4.10;;
70337;SDS011;57757;53.198;19.646;2023-09-19T15:44:28;11.00;;;5.30;;
70337;SDS011;57757;53.198;19.646;2023-09-19T15:46:55;7.60;;;3.40;;
70337;SDS011;57757;53.198;19.646;2023-09-19T15:49:24;8.50;;;3.10;;
70337;SDS011;57757;53.198;19.646;2023-09-19T15:51:52;9.60;;;2.70;;
70337;SDS011;57757;53.198;19.646;2023-09-19T15:54:19;10.20;;;3.10;;
70337;SDS011;57757;53.198;19.646;2023-09-19T15:56:47;8.40;;;2.90;;
70337;SDS011;57757;53.198;19.646;2023-09-19T15:59:16;16.60;;;7.60;;